Tara Lynn II — WDG5016 — position and weather

sailwx.info

Track history (hours):
 
Tides and Currents Weather Stations Pressure Air Temp Water Temp Dewpoint Dewpoint Depression Visibility Wind Speed Wind Dir Waves Ship Positions

Tara Lynn II

Owner: Osier Seafood, Inc., So. Bristol, ME. More information available from US FCC via Universal Licensing System and Coast Guard Vessel Documentation Center.

Last reported at 2017-Sep-15 12:47 UTC. Time now 2017-Sep-19 22:43 UTC.
Position N 42°51' W 069°47'.

Length 17 m.

Type: Fishing. MMSI: 367530120.

Date/timePositionNaut miles runAvg speedWind from/ knotsBaromVisibWave heightAir tempDewpointWater temp
2017-Sep-15 12:47N 42°51' W 069°47'2 0.1
2017-Sep-14 07:15N 42°52' W 069°48'1 2.5
2017-Sep-14 06:41N 42°51' W 069°47'0 2.5
2017-Sep-14 06:30N 42°51' W 069°47'1 2.5
2017-Sep-14 05:56N 42°50' W 069°45'4 2.3
2017-Sep-14 04:06N 42°47' W 069°41'0 2.7
2017-Sep-14 04:00N 42°47' W 069°41'1 2.4
2017-Sep-14 03:30N 42°47' W 069°43'1 2.5
2017-Sep-14 03:00N 42°48' W 069°44'5 2.6
2017-Sep-14 01:06N 42°52' W 069°48'0 2.8
2017-Sep-14 01:00N 42°52' W 069°48'1 2.8
2017-Sep-14 00:30N 42°53' W 069°49'1 1.5
2017-Sep-14 00:00N 42°54' W 069°49'1 0.1
2017-Sep-13 03:42N 42°53' W 069°48'0 2.6
2017-Sep-13 03:30N 42°53' W 069°48'1 2.5
2017-Sep-13 03:00N 42°52' W 069°46'1 0.1
2017-Sep-12 14:47N 42°54' W 069°47'1 2.7
2017-Sep-12 14:23N 42°53' W 069°47'1 2.6
2017-Sep-12 14:00N 42°52' W 069°48'1 2.5
2017-Sep-12 13:30N 42°54' W 069°49'1 2.6
2017-Sep-12 13:00N 42°55' W 069°50'1 2.6
2017-Sep-12 12:29N 42°56' W 069°51'1 2.6
2017-Sep-12 12:01N 42°57' W 069°52'1 2.7
2017-Sep-12 11:31N 42°58' W 069°53'1 2.6
2017-Sep-12 11:01N 42°59' W 069°53'1 2.6
2017-Sep-12 10:30N 43°00' W 069°54'2 3.1
2017-Sep-12 10:00N 43°02' W 069°54'3 5.4
2017-Sep-12 09:30N 43°05' W 069°55'4 8.6
2017-Sep-12 08:59N 43°09' W 069°57'4 8.5
2017-Sep-12 08:30N 43°13' W 069°59'4 8.4
2017-Sep-12 08:00N 43°17' W 070°01'4 8.4
2017-Sep-12 07:30N 43°21' W 070°02'4 8.3
2017-Sep-12 07:00N 43°25' W 070°04'4 8.0
2017-Sep-12 06:30N 43°28' W 070°06'4 7.9
2017-Sep-12 06:00N 43°32' W 070°08'4 7.8
2017-Sep-12 05:30N 43°35' W 070°10'4 7.4
2017-Sep-12 05:00N 43°39' W 070°13'2 3.4
2017-Sep-12 04:31N 43°39' W 070°15'0 0.0
2017-Sep-11 12:45N 43°39' W 070°15'0 0.0
2017-Sep-11 12:30N 43°39' W 070°15'0 0.0
2017-Sep-11 12:00N 43°39' W 070°15'0 0.2
2017-Sep-11 11:29N 43°39' W 070°15'0 0.0
2017-Sep-11 10:59N 43°39' W 070°15'0 0.0
2017-Sep-11 10:29N 43°39' W 070°15'0 0.1
2017-Sep-11 09:59N 43°39' W 070°15'0 0.0
2017-Sep-11 09:26N 43°39' W 070°15'0 0.0
2017-Sep-11 08:59N 43°39' W 070°15'0 0.0
2017-Sep-11 08:29N 43°39' W 070°15'0 0.4
2017-Sep-11 08:00N 43°39' W 070°15'3 5.3
2017-Sep-11 07:30N 43°38' W 070°12'3 6.6
2017-Sep-11 07:00N 43°35' W 070°09'3 6.5
2017-Sep-11 06:30N 43°32' W 070°07'3 6.1
2017-Sep-11 06:00N 43°29' W 070°06'3 5.7
2017-Sep-11 05:28N 43°26' W 070°04'3 5.5
2017-Sep-11 04:59N 43°24' W 070°03'36 1.2
2017-Sep-09 21:48N 42°50' W 069°45'1 2.6
2017-Sep-09 21:28N 42°51' W 069°46'1 2.6
2017-Sep-09 20:57N 42°52' W 069°47'  
Track history (hours):
 
Tides and Currents Weather Stations Pressure Air Temp Water Temp Dewpoint Dewpoint Depression Visibility Wind Speed Wind Dir Waves Ship Positions

Tara Lynn II

Owner: Osier Seafood, Inc., So. Bristol, ME. More information available from US FCC via Universal Licensing System and Coast Guard Vessel Documentation Center.

Last reported at 2017-Sep-15 12:47 UTC. Time now 2017-Sep-19 22:43 UTC.
Position N 42°51' W 069°47'.

Length 17 m.

Type: Fishing. MMSI: 367530120.

Date/timePositionNaut miles runAvg speedWind from/ knotsBaromVisibWave heightAir tempDewpointWater temp
2017-Sep-15 12:47N 42°51' W 069°47'2 0.1
2017-Sep-14 07:15N 42°52' W 069°48'1 2.5
2017-Sep-14 06:41N 42°51' W 069°47'0 2.5
2017-Sep-14 06:30N 42°51' W 069°47'1 2.5
2017-Sep-14 05:56N 42°50' W 069°45'4 2.3
2017-Sep-14 04:06N 42°47' W 069°41'0 2.7
2017-Sep-14 04:00N 42°47' W 069°41'1 2.4
2017-Sep-14 03:30N 42°47' W 069°43'1 2.5
2017-Sep-14 03:00N 42°48' W 069°44'5 2.6
2017-Sep-14 01:06N 42°52' W 069°48'0 2.8
2017-Sep-14 01:00N 42°52' W 069°48'1 2.8
2017-Sep-14 00:30N 42°53' W 069°49'1 1.5
2017-Sep-14 00:00N 42°54' W 069°49'1 0.1
2017-Sep-13 03:42N 42°53' W 069°48'0 2.6
2017-Sep-13 03:30N 42°53' W 069°48'1 2.5
2017-Sep-13 03:00N 42°52' W 069°46'1 0.1
2017-Sep-12 14:47N 42°54' W 069°47'1 2.7
2017-Sep-12 14:23N 42°53' W 069°47'1 2.6
2017-Sep-12 14:00N 42°52' W 069°48'1 2.5
2017-Sep-12 13:30N 42°54' W 069°49'1 2.6
2017-Sep-12 13:00N 42°55' W 069°50'1 2.6
2017-Sep-12 12:29N 42°56' W 069°51'1 2.6
2017-Sep-12 12:01N 42°57' W 069°52'1 2.7
2017-Sep-12 11:31N 42°58' W 069°53'1 2.6
2017-Sep-12 11:01N 42°59' W 069°53'1 2.6
2017-Sep-12 10:30N 43°00' W 069°54'2 3.1
2017-Sep-12 10:00N 43°02' W 069°54'3 5.4
2017-Sep-12 09:30N 43°05' W 069°55'4 8.6
2017-Sep-12 08:59N 43°09' W 069°57'4 8.5
2017-Sep-12 08:30N 43°13' W 069°59'4 8.4
2017-Sep-12 08:00N 43°17' W 070°01'4 8.4
2017-Sep-12 07:30N 43°21' W 070°02'4 8.3
2017-Sep-12 07:00N 43°25' W 070°04'4 8.0
2017-Sep-12 06:30N 43°28' W 070°06'4 7.9
2017-Sep-12 06:00N 43°32' W 070°08'4 7.8
2017-Sep-12 05:30N 43°35' W 070°10'4 7.4
2017-Sep-12 05:00N 43°39' W 070°13'2 3.4
2017-Sep-12 04:31N 43°39' W 070°15'0 0.0
2017-Sep-11 12:45N 43°39' W 070°15'0 0.0
2017-Sep-11 12:30N 43°39' W 070°15'0 0.0
2017-Sep-11 12:00N 43°39' W 070°15'0 0.2
2017-Sep-11 11:29N 43°39' W 070°15'0 0.0
2017-Sep-11 10:59N 43°39' W 070°15'0 0.0
2017-Sep-11 10:29N 43°39' W 070°15'0 0.1
2017-Sep-11 09:59N 43°39' W 070°15'0 0.0
2017-Sep-11 09:26N 43°39' W 070°15'0 0.0
2017-Sep-11 08:59N 43°39' W 070°15'0 0.0
2017-Sep-11 08:29N 43°39' W 070°15'0 0.4
2017-Sep-11 08:00N 43°39' W 070°15'3 5.3
2017-Sep-11 07:30N 43°38' W 070°12'3 6.6
2017-Sep-11 07:00N 43°35' W 070°09'3 6.5
2017-Sep-11 06:30N 43°32' W 070°07'3 6.1
2017-Sep-11 06:00N 43°29' W 070°06'3 5.7
2017-Sep-11 05:28N 43°26' W 070°04'3 5.5
2017-Sep-11 04:59N 43°24' W 070°03'36 1.2
2017-Sep-09 21:48N 42°50' W 069°45'1 2.6
2017-Sep-09 21:28N 42°51' W 069°46'1 2.6
2017-Sep-09 20:57N 42°52' W 069°47'  

Dump ship's entire track history